sensor_id;sensor_type;location;lat;lon;timestamp;P1;durP1;ratioP1;P2;durP2;ratioP2
27495;SDS011;14929;51.336;9.416;2023-02-11T00:01:05;14.80;;;12.23;;
27495;SDS011;14929;51.336;9.416;2023-02-11T00:03:35;13.52;;;11.30;;
27495;SDS011;14929;51.336;9.416;2023-02-11T00:06:03;15.15;;;11.90;;
27495;SDS011;14929;51.336;9.416;2023-02-11T00:08:34;15.05;;;11.05;;
27495;SDS011;14929;51.336;9.416;2023-02-11T00:11:02;10.93;;;9.23;;
27495;SDS011;14929;51.336;9.416;2023-02-11T00:13:30;11.85;;;10.07;;
27495;SDS011;14929;51.336;9.416;2023-02-11T00:15:57;13.02;;;9.65;;
27495;SDS011;14929;51.336;9.416;2023-02-11T00:18:25;10.55;;;9.23;;
27495;SDS011;14929;51.336;9.416;2023-02-11T00:20:55;12.48;;;10.38;;
27495;SDS011;14929;51.336;9.416;2023-02-11T00:23:22;11.52;;;9.80;;
27495;SDS011;14929;51.336;9.416;2023-02-11T00:25:50;13.68;;;10.70;;
27495;SDS011;14929;51.336;9.416;2023-02-11T00:28:17;10.25;;;9.25;;
27495;SDS011;14929;51.336;9.416;2023-02-11T00:30:45;13.77;;;10.13;;
27495;SDS011;14929;51.336;9.416;2023-02-11T00:33:20;11.48;;;8.85;;
27495;SDS011;14929;51.336;9.416;2023-02-11T00:35:48;12.18;;;8.65;;
27495;SDS011;14929;51.336;9.416;2023-02-11T00:38:17;17.02;;;13.70;;
27495;SDS011;14929;51.336;9.416;2023-02-11T00:40:45;11.75;;;10.45;;
27495;SDS011;14929;51.336;9.416;2023-02-11T00:43:12;11.90;;;9.93;;
27495;SDS011;14929;51.336;9.416;2023-02-11T00:45:40;11.25;;;10.07;;
27495;SDS011;14929;51.336;9.416;2023-02-11T00:48:07;11.88;;;10.07;;
27495;SDS011;14929;51.336;9.416;2023-02-11T00:50:34;10.00;;;8.75;;
27495;SDS011;14929;51.336;9.416;2023-02-11T00:53:02;10.13;;;9.07;;
27495;SDS011;14929;51.336;9.416;2023-02-11T00:55:31;10.45;;;9.32;;
27495;SDS011;14929;51.336;9.416;2023-02-11T00:57:58;14.70;;;11.85;;
27495;SDS011;14929;51.336;9.416;2023-02-11T01:00:26;12.43;;;10.68;;
27495;SDS011;14929;51.336;9.416;2023-02-11T01:02:54;13.07;;;10.25;;
27495;SDS011;14929;51.336;9.416;2023-02-11T01:05:21;19.10;;;13.32;;
27495;SDS011;14929;51.336;9.416;2023-02-11T01:07:50;17.65;;;13.43;;
27495;SDS011;14929;51.336;9.416;2023-02-11T01:10:18;19.98;;;14.50;;
27495;SDS011;14929;51.336;9.416;2023-02-11T01:12:47;17.13;;;14.05;;
27495;SDS011;14929;51.336;9.416;2023-02-11T01:15:15;11.45;;;10.18;;
27495;SDS011;14929;51.336;9.416;2023-02-11T01:17:44;16.13;;;11.52;;
27495;SDS011;14929;51.336;9.416;2023-02-11T01:20:12;13.77;;;10.40;;
27495;SDS011;14929;51.336;9.416;2023-02-11T01:22:42;12.88;;;9.63;;
27495;SDS011;14929;51.336;9.416;2023-02-11T01:25:10;12.70;;;10.60;;
27495;SDS011;14929;51.336;9.416;2023-02-11T01:27:38;11.93;;;10.63;;
27495;SDS011;14929;51.336;9.416;2023-02-11T01:30:07;16.70;;;12.98;;
27495;SDS011;14929;51.336;9.416;2023-02-11T01:32:37;13.25;;;11.05;;
27495;SDS011;14929;51.336;9.416;2023-02-11T01:35:05;11.70;;;10.43;;
27495;SDS011;14929;51.336;9.416;2023-02-11T01:37:33;13.65;;;10.93;;
27495;SDS011;14929;51.336;9.416;2023-02-11T01:40:01;16.90;;;12.27;;
27495;SDS011;14929;51.336;9.416;2023-02-11T01:42:30;12.35;;;10.50;;
27495;SDS011;14929;51.336;9.416;2023-02-11T01:44:59;11.38;;;9.45;;
27495;SDS011;14929;51.336;9.416;2023-02-11T01:47:31;10.60;;;9.50;;
27495;SDS011;14929;51.336;9.416;2023-02-11T01:49:58;13.23;;;11.15;;
27495;SDS011;14929;51.336;9.416;2023-02-11T01:52:29;12.02;;;10.25;;
27495;SDS011;14929;51.336;9.416;2023-02-11T01:54:59;14.40;;;10.32;;
27495;SDS011;14929;51.336;9.416;2023-02-11T01:57:47;11.10;;;9.60;;
27495;SDS011;14929;51.336;9.416;2023-02-11T02:00:20;10.50;;;9.23;;
27495;SDS011;14929;51.336;9.416;2023-02-11T02:02:54;11.90;;;10.25;;
27495;SDS011;14929;51.336;9.416;2023-02-11T02:05:25;10.90;;;8.65;;
27495;SDS011;14929;51.336;9.416;2023-02-11T02:07:59;15.15;;;10.27;;
27495;SDS011;14929;51.336;9.416;2023-02-11T02:10:32;15.65;;;12.63;;
27495;SDS011;14929;51.336;9.416;2023-02-11T02:13:00;16.90;;;12.82;;
27495;SDS011;14929;51.336;9.416;2023-02-11T02:15:29;16.27;;;12.48;;
27495;SDS011;14929;51.336;9.416;2023-02-11T02:18:01;13.45;;;10.13;;
27495;SDS011;14929;51.336;9.416;2023-02-11T02:20:47;14.38;;;10.93;;
27495;SDS011;14929;51.336;9.416;2023-02-11T02:24:09;11.77;;;10.02;;
27495;SDS011;14929;51.336;9.416;2023-02-11T02:27:22;12.15;;;10.18;;
27495;SDS011;14929;51.336;9.416;2023-02-11T02:33:37;12.55;;;9.77;;
27495;SDS011;14929;51.336;9.416;2023-02-11T02:36:13;10.77;;;9.43;;
27495;SDS011;14929;51.336;9.416;2023-02-11T02:38:47;13.18;;;10.23;;
27495;SDS011;14929;51.336;9.416;2023-02-11T02:41:19;13.80;;;10.32;;
27495;SDS011;14929;51.336;9.416;2023-02-11T02:43:49;12.80;;;10.38;;
27495;SDS011;14929;51.336;9.416;2023-02-11T02:46:18;13.93;;;10.85;;
27495;SDS011;14929;51.336;9.416;2023-02-11T02:48:49;15.82;;;10.68;;
27495;SDS011;14929;51.336;9.416;2023-02-11T02:51:23;14.43;;;11.88;;
27495;SDS011;14929;51.336;9.416;2023-02-11T02:54:05;16.35;;;12.25;;
27495;SDS011;14929;51.336;9.416;2023-02-11T02:56:56;16.55;;;12.43;;
27495;SDS011;14929;51.336;9.416;2023-02-11T02:59:33;21.33;;;14.32;;
27495;SDS011;14929;51.336;9.416;2023-02-11T03:02:10;19.52;;;15.02;;
27495;SDS011;14929;51.336;9.416;2023-02-11T03:04:46;14.52;;;11.77;;
27495;SDS011;14929;51.336;9.416;2023-02-11T03:07:21;15.57;;;13.00;;
27495;SDS011;14929;51.336;9.416;2023-02-11T03:09:53;13.48;;;9.82;;
27495;SDS011;14929;51.336;9.416;2023-02-11T03:12:23;15.73;;;10.65;;
27495;SDS011;14929;51.336;9.416;2023-02-11T03:14:53;13.15;;;9.60;;
27495;SDS011;14929;51.336;9.416;2023-02-11T03:17:20;12.30;;;10.38;;
27495;SDS011;14929;51.336;9.416;2023-02-11T03:19:50;15.43;;;11.50;;
27495;SDS011;14929;51.336;9.416;2023-02-11T03:22:19;15.57;;;11.93;;
27495;SDS011;14929;51.336;9.416;2023-02-11T03:24:50;22.27;;;14.13;;
27495;SDS011;14929;51.336;9.416;2023-02-11T03:27:19;17.92;;;12.57;;
27495;SDS011;14929;51.336;9.416;2023-02-11T03:29:51;17.15;;;13.38;;
27495;SDS011;14929;51.336;9.416;2023-02-11T03:32:22;15.63;;;12.35;;
27495;SDS011;14929;51.336;9.416;2023-02-11T03:34:55;21.48;;;13.82;;
27495;SDS011;14929;51.336;9.416;2023-02-11T03:37:25;14.43;;;11.15;;
27495;SDS011;14929;51.336;9.416;2023-02-11T03:39:55;14.13;;;11.30;;
27495;SDS011;14929;51.336;9.416;2023-02-11T03:42:25;14.55;;;12.63;;
27495;SDS011;14929;51.336;9.416;2023-02-11T03:44:58;12.85;;;10.73;;
27495;SDS011;14929;51.336;9.416;2023-02-11T03:47:29;18.98;;;14.88;;
27495;SDS011;14929;51.336;9.416;2023-02-11T03:50:00;14.32;;;10.88;;
27495;SDS011;14929;51.336;9.416;2023-02-11T03:52:30;15.13;;;12.82;;
27495;SDS011;14929;51.336;9.416;2023-02-11T03:54:59;13.60;;;10.30;;
27495;SDS011;14929;51.336;9.416;2023-02-11T03:57:28;12.68;;;9.93;;
27495;SDS011;14929;51.336;9.416;2023-02-11T03:59:58;10.38;;;9.18;;
27495;SDS011;14929;51.336;9.416;2023-02-11T04:02:27;11.38;;;9.43;;
27495;SDS011;14929;51.336;9.416;2023-02-11T04:04:57;10.00;;;8.95;;
27495;SDS011;14929;51.336;9.416;2023-02-11T04:07:26;13.65;;;10.85;;
27495;SDS011;14929;51.336;9.416;2023-02-11T04:09:54;17.63;;;13.82;;
27495;SDS011;14929;51.336;9.416;2023-02-11T04:12:21;22.08;;;15.75;;
27495;SDS011;14929;51.336;9.416;2023-02-11T04:14:49;20.05;;;13.35;;
27495;SDS011;14929;51.336;9.416;2023-02-11T04:17:16;14.93;;;13.10;;
27495;SDS011;14929;51.336;9.416;2023-02-11T04:19:44;16.17;;;12.43;;
27495;SDS011;14929;51.336;9.416;2023-02-11T04:22:13;12.85;;;11.48;;
27495;SDS011;14929;51.336;9.416;2023-02-11T04:24:41;14.52;;;11.55;;
27495;SDS011;14929;51.336;9.416;2023-02-11T04:27:09;14.00;;;10.82;;
27495;SDS011;14929;51.336;9.416;2023-02-11T04:29:36;15.48;;;12.05;;
27495;SDS011;14929;51.336;9.416;2023-02-11T04:32:04;15.23;;;12.13;;
27495;SDS011;14929;51.336;9.416;2023-02-11T04:34:31;15.63;;;12.13;;
27495;SDS011;14929;51.336;9.416;2023-02-11T04:36:59;17.02;;;12.77;;
27495;SDS011;14929;51.336;9.416;2023-02-11T04:39:28;15.20;;;11.95;;
27495;SDS011;14929;51.336;9.416;2023-02-11T04:41:55;16.20;;;12.95;;
27495;SDS011;14929;51.336;9.416;2023-02-11T04:44:30;22.08;;;14.02;;
27495;SDS011;14929;51.336;9.416;2023-02-11T04:46:58;18.45;;;15.45;;
27495;SDS011;14929;51.336;9.416;2023-02-11T04:49:25;23.27;;;17.08;;
27495;SDS011;14929;51.336;9.416;2023-02-11T04:51:53;24.73;;;18.48;;
27495;SDS011;14929;51.336;9.416;2023-02-11T04:54:21;17.83;;;13.48;;
27495;SDS011;14929;51.336;9.416;2023-02-11T04:56:49;18.20;;;14.60;;
27495;SDS011;14929;51.336;9.416;2023-02-11T04:59:17;17.10;;;13.27;;
27495;SDS011;14929;51.336;9.416;2023-02-11T05:01:44;15.10;;;13.38;;
27495;SDS011;14929;51.336;9.416;2023-02-11T05:04:12;20.50;;;14.38;;
27495;SDS011;14929;51.336;9.416;2023-02-11T05:06:39;18.10;;;12.45;;
27495;SDS011;14929;51.336;9.416;2023-02-11T05:09:08;16.45;;;12.75;;
27495;SDS011;14929;51.336;9.416;2023-02-11T05:11:36;14.40;;;11.40;;
27495;SDS011;14929;51.336;9.416;2023-02-11T05:14:05;15.15;;;11.57;;
27495;SDS011;14929;51.336;9.416;2023-02-11T05:16:33;22.25;;;15.75;;
27495;SDS011;14929;51.336;9.416;2023-02-11T05:19:00;13.57;;;11.02;;
27495;SDS011;14929;51.336;9.416;2023-02-11T05:21:28;18.45;;;13.55;;
27495;SDS011;14929;51.336;9.416;2023-02-11T05:23:55;14.30;;;12.60;;
27495;SDS011;14929;51.336;9.416;2023-02-11T05:26:23;21.52;;;17.02;;
27495;SDS011;14929;51.336;9.416;2023-02-11T05:28:51;16.88;;;13.20;;
27495;SDS011;14929;51.336;9.416;2023-02-11T05:31:20;17.88;;;13.68;;
27495;SDS011;14929;51.336;9.416;2023-02-11T05:33:47;21.98;;;14.55;;
27495;SDS011;14929;51.336;9.416;2023-02-11T05:36:14;22.40;;;16.80;;
27495;SDS011;14929;51.336;9.416;2023-02-11T05:38:42;18.60;;;14.98;;
27495;SDS011;14929;51.336;9.416;2023-02-11T05:41:10;18.10;;;13.50;;
27495;SDS011;14929;51.336;9.416;2023-02-11T05:43:37;15.88;;;12.20;;
27495;SDS011;14929;51.336;9.416;2023-02-11T05:46:05;16.90;;;12.93;;
27495;SDS011;14929;51.336;9.416;2023-02-11T05:48:34;17.02;;;13.32;;
27495;SDS011;14929;51.336;9.416;2023-02-11T05:51:01;13.10;;;10.50;;
27495;SDS011;14929;51.336;9.416;2023-02-11T05:53:29;15.65;;;12.63;;
27495;SDS011;14929;51.336;9.416;2023-02-11T05:55:57;13.23;;;10.63;;
27495;SDS011;14929;51.336;9.416;2023-02-11T05:58:24;14.27;;;11.30;;
27495;SDS011;14929;51.336;9.416;2023-02-11T06:00:52;14.32;;;11.82;;
27495;SDS011;14929;51.336;9.416;2023-02-11T06:03:19;18.38;;;14.63;;
27495;SDS011;14929;51.336;9.416;2023-02-11T06:05:48;16.55;;;13.02;;
27495;SDS011;14929;51.336;9.416;2023-02-11T06:08:15;13.10;;;11.52;;
27495;SDS011;14929;51.336;9.416;2023-02-11T06:10:43;16.10;;;12.40;;
27495;SDS011;14929;51.336;9.416;2023-02-11T06:13:11;14.43;;;12.00;;
27495;SDS011;14929;51.336;9.416;2023-02-11T06:15:38;16.20;;;13.13;;
27495;SDS011;14929;51.336;9.416;2023-02-11T06:18:06;17.73;;;14.05;;
27495;SDS011;14929;51.336;9.416;2023-02-11T06:20:33;16.77;;;13.18;;
27495;SDS011;14929;51.336;9.416;2023-02-11T06:23:02;15.27;;;11.35;;
27495;SDS011;14929;51.336;9.416;2023-02-11T06:25:30;21.42;;;14.75;;
27495;SDS011;14929;51.336;9.416;2023-02-11T06:27:57;14.70;;;11.73;;
27495;SDS011;14929;51.336;9.416;2023-02-11T06:30:25;16.75;;;12.45;;
27495;SDS011;14929;51.336;9.416;2023-02-11T06:32:52;14.25;;;11.27;;
27495;SDS011;14929;51.336;9.416;2023-02-11T06:35:19;15.73;;;12.27;;
27495;SDS011;14929;51.336;9.416;2023-02-11T06:37:47;16.60;;;11.95;;
27495;SDS011;14929;51.336;9.416;2023-02-11T06:40:19;19.88;;;15.38;;
27495;SDS011;14929;51.336;9.416;2023-02-11T06:42:46;15.90;;;12.63;;
27495;SDS011;14929;51.336;9.416;2023-02-11T06:45:14;18.20;;;14.00;;
27495;SDS011;14929;51.336;9.416;2023-02-11T06:47:41;21.25;;;17.55;;
27495;SDS011;14929;51.336;9.416;2023-02-11T06:50:10;21.02;;;15.38;;
27495;SDS011;14929;51.336;9.416;2023-02-11T06:52:39;17.25;;;13.98;;
27495;SDS011;14929;51.336;9.416;2023-02-11T06:55:06;13.55;;;11.60;;
27495;SDS011;14929;51.336;9.416;2023-02-11T06:57:36;17.85;;;13.75;;
27495;SDS011;14929;51.336;9.416;2023-02-11T07:00:04;14.43;;;12.15;;
27495;SDS011;14929;51.336;9.416;2023-02-11T07:02:33;13.32;;;11.27;;
27495;SDS011;14929;51.336;9.416;2023-02-11T07:05:00;14.90;;;12.77;;
27495;SDS011;14929;51.336;9.416;2023-02-11T07:07:28;20.52;;;16.60;;
27495;SDS011;14929;51.336;9.416;2023-02-11T07:09:56;16.90;;;14.80;;
27495;SDS011;14929;51.336;9.416;2023-02-11T07:12:24;18.05;;;13.10;;
27495;SDS011;14929;51.336;9.416;2023-02-11T07:14:52;19.27;;;15.30;;
27495;SDS011;14929;51.336;9.416;2023-02-11T07:17:22;14.38;;;11.57;;
27495;SDS011;14929;51.336;9.416;2023-02-11T07:19:49;15.13;;;12.20;;
27495;SDS011;14929;51.336;9.416;2023-02-11T07:22:17;18.67;;;12.05;;
27495;SDS011;14929;51.336;9.416;2023-02-11T07:24:44;12.57;;;10.05;;
27495;SDS011;14929;51.336;9.416;2023-02-11T07:27:12;13.30;;;9.57;;
27495;SDS011;14929;51.336;9.416;2023-02-11T07:29:40;11.10;;;8.75;;
27495;SDS011;14929;51.336;9.416;2023-02-11T07:32:11;14.68;;;10.38;;
27495;SDS011;14929;51.336;9.416;2023-02-11T07:34:38;13.70;;;11.43;;
27495;SDS011;14929;51.336;9.416;2023-02-11T07:37:06;13.32;;;11.23;;
27495;SDS011;14929;51.336;9.416;2023-02-11T07:39:34;14.73;;;10.70;;
27495;SDS011;14929;51.336;9.416;2023-02-11T07:42:02;15.68;;;12.30;;
27495;SDS011;14929;51.336;9.416;2023-02-11T07:44:30;13.85;;;10.35;;
27495;SDS011;14929;51.336;9.416;2023-02-11T07:46:59;14.27;;;11.57;;
27495;SDS011;14929;51.336;9.416;2023-02-11T07:49:28;13.40;;;10.05;;
27495;SDS011;14929;51.336;9.416;2023-02-11T07:51:55;13.10;;;10.60;;
27495;SDS011;14929;51.336;9.416;2023-02-11T07:54:23;14.52;;;10.07;;
27495;SDS011;14929;51.336;9.416;2023-02-11T07:56:50;11.68;;;9.20;;
27495;SDS011;14929;51.336;9.416;2023-02-11T07:59:18;9.65;;;8.00;;
27495;SDS011;14929;51.336;9.416;2023-02-11T08:01:45;18.08;;;12.80;;
27495;SDS011;14929;51.336;9.416;2023-02-11T08:04:15;23.60;;;16.17;;
27495;SDS011;14929;51.336;9.416;2023-02-11T08:06:44;16.20;;;12.93;;
27495;SDS011;14929;51.336;9.416;2023-02-11T08:09:13;21.17;;;15.48;;
27495;SDS011;14929;51.336;9.416;2023-02-11T08:11:41;14.13;;;10.00;;
27495;SDS011;14929;51.336;9.416;2023-02-11T08:14:09;8.10;;;7.20;;
27495;SDS011;14929;51.336;9.416;2023-02-11T08:16:37;8.35;;;6.95;;
27495;SDS011;14929;51.336;9.416;2023-02-11T08:19:06;8.65;;;7.13;;
27495;SDS011;14929;51.336;9.416;2023-02-11T08:21:36;7.50;;;6.72;;
27495;SDS011;14929;51.336;9.416;2023-02-11T08:24:06;8.65;;;6.20;;
27495;SDS011;14929;51.336;9.416;2023-02-11T08:26:34;9.02;;;7.32;;
27495;SDS011;14929;51.336;9.416;2023-02-11T08:29:05;17.83;;;12.88;;
27495;SDS011;14929;51.336;9.416;2023-02-11T08:31:36;20.00;;;16.13;;
27495;SDS011;14929;51.336;9.416;2023-02-11T08:34:07;19.42;;;15.27;;
27495;SDS011;14929;51.336;9.416;2023-02-11T08:36:35;21.13;;;17.25;;
27495;SDS011;14929;51.336;9.416;2023-02-11T08:39:06;19.00;;;14.30;;
27495;SDS011;14929;51.336;9.416;2023-02-11T08:41:36;16.42;;;12.25;;
27495;SDS011;14929;51.336;9.416;2023-02-11T08:44:04;20.27;;;15.00;;
27495;SDS011;14929;51.336;9.416;2023-02-11T08:46:32;18.30;;;14.70;;
27495;SDS011;14929;51.336;9.416;2023-02-11T08:48:59;13.73;;;12.27;;
27495;SDS011;14929;51.336;9.416;2023-02-11T08:51:27;16.50;;;12.48;;
27495;SDS011;14929;51.336;9.416;2023-02-11T08:53:55;16.65;;;10.90;;
27495;SDS011;14929;51.336;9.416;2023-02-11T08:56:25;13.98;;;11.18;;
27495;SDS011;14929;51.336;9.416;2023-02-11T08:58:55;25.63;;;16.70;;
27495;SDS011;14929;51.336;9.416;2023-02-11T09:01:23;16.30;;;13.43;;
27495;SDS011;14929;51.336;9.416;2023-02-11T09:03:53;15.13;;;12.88;;
27495;SDS011;14929;51.336;9.416;2023-02-11T09:06:21;21.10;;;15.18;;
27495;SDS011;14929;51.336;9.416;2023-02-11T09:08:50;12.55;;;11.25;;
27495;SDS011;14929;51.336;9.416;2023-02-11T09:11:20;13.50;;;11.55;;
27495;SDS011;14929;51.336;9.416;2023-02-11T09:13:53;12.05;;;10.85;;
27495;SDS011;14929;51.336;9.416;2023-02-11T09:16:21;20.13;;;14.50;;
27495;SDS011;14929;51.336;9.416;2023-02-11T09:18:51;18.42;;;13.43;;
27495;SDS011;14929;51.336;9.416;2023-02-11T09:21:19;17.38;;;14.07;;
27495;SDS011;14929;51.336;9.416;2023-02-11T09:23:46;17.70;;;14.80;;
27495;SDS011;14929;51.336;9.416;2023-02-11T09:26:15;17.67;;;15.30;;
27495;SDS011;14929;51.336;9.416;2023-02-11T09:28:46;16.65;;;14.05;;
27495;SDS011;14929;51.336;9.416;2023-02-11T09:31:16;12.13;;;10.85;;
27495;SDS011;14929;51.336;9.416;2023-02-11T09:33:46;14.25;;;11.38;;
27495;SDS011;14929;51.336;9.416;2023-02-11T09:36:16;18.80;;;14.13;;
27495;SDS011;14929;51.336;9.416;2023-02-11T09:38:45;12.35;;;10.50;;
27495;SDS011;14929;51.336;9.416;2023-02-11T09:41:22;10.60;;;9.52;;
27495;SDS011;14929;51.336;9.416;2023-02-11T09:44:03;20.85;;;14.82;;
27495;SDS011;14929;51.336;9.416;2023-02-11T09:46:34;19.73;;;15.70;;
27495;SDS011;14929;51.336;9.416;2023-02-11T09:49:05;14.77;;;11.95;;
27495;SDS011;14929;51.336;9.416;2023-02-11T09:51:39;13.10;;;10.70;;
27495;SDS011;14929;51.336;9.416;2023-02-11T09:54:12;13.82;;;11.43;;
27495;SDS011;14929;51.336;9.416;2023-02-11T09:56:42;13.35;;;10.80;;
27495;SDS011;14929;51.336;9.416;2023-02-11T09:59:11;14.82;;;11.77;;
27495;SDS011;14929;51.336;9.416;2023-02-11T10:01:43;13.55;;;10.80;;
27495;SDS011;14929;51.336;9.416;2023-02-11T10:04:13;15.77;;;10.30;;
27495;SDS011;14929;51.336;9.416;2023-02-11T10:06:49;7.50;;;6.70;;
27495;SDS011;14929;51.336;9.416;2023-02-11T10:09:27;10.68;;;7.78;;
27495;SDS011;14929;51.336;9.416;2023-02-11T10:12:08;7.85;;;6.57;;
27495;SDS011;14929;51.336;9.416;2023-02-11T10:15:00;8.45;;;6.25;;
27495;SDS011;14929;51.336;9.416;2023-02-11T10:17:43;6.00;;;5.40;;
27495;SDS011;14929;51.336;9.416;2023-02-11T10:20:29;17.60;;;13.45;;
27495;SDS011;14929;51.336;9.416;2023-02-11T10:23:04;20.33;;;15.48;;
27495;SDS011;14929;51.336;9.416;2023-02-11T10:25:39;12.40;;;10.68;;
27495;SDS011;14929;51.336;9.416;2023-02-11T10:28:10;10.93;;;9.13;;
27495;SDS011;14929;51.336;9.416;2023-02-11T10:30:44;14.70;;;11.80;;
27495;SDS011;14929;51.336;9.416;2023-02-11T10:33:19;18.20;;;13.80;;
27495;SDS011;14929;51.336;9.416;2023-02-11T10:35:50;19.85;;;15.05;;
27495;SDS011;14929;51.336;9.416;2023-02-11T10:38:18;17.20;;;13.73;;
27495;SDS011;14929;51.336;9.416;2023-02-11T10:40:46;15.63;;;12.45;;
27495;SDS011;14929;51.336;9.416;2023-02-11T10:43:14;19.60;;;15.07;;
27495;SDS011;14929;51.336;9.416;2023-02-11T10:45:45;22.83;;;15.98;;
27495;SDS011;14929;51.336;9.416;2023-02-11T10:51:11;15.48;;;12.55;;
27495;SDS011;14929;51.336;9.416;2023-02-11T10:53:43;20.98;;;16.10;;
27495;SDS011;14929;51.336;9.416;2023-02-11T10:56:13;20.10;;;15.48;;
27495;SDS011;14929;51.336;9.416;2023-02-11T10:58:58;21.30;;;17.30;;
27495;SDS011;14929;51.336;9.416;2023-02-11T11:01:39;16.02;;;14.02;;
27495;SDS011;14929;51.336;9.416;2023-02-11T11:04:23;14.63;;;12.82;;
27495;SDS011;14929;51.336;9.416;2023-02-11T11:07:08;16.98;;;14.43;;
27495;SDS011;14929;51.336;9.416;2023-02-11T11:09:43;15.15;;;12.18;;
27495;SDS011;14929;51.336;9.416;2023-02-11T11:12:26;18.65;;;14.48;;
27495;SDS011;14929;51.336;9.416;2023-02-11T11:14:59;21.50;;;14.60;;
27495;SDS011;14929;51.336;9.416;2023-02-11T11:17:41;22.35;;;15.65;;
27495;SDS011;14929;51.336;9.416;2023-02-11T11:20:13;18.83;;;13.73;;
27495;SDS011;14929;51.336;9.416;2023-02-11T11:22:53;18.25;;;14.98;;
27495;SDS011;14929;51.336;9.416;2023-02-11T11:25:37;14.07;;;11.40;;
27495;SDS011;14929;51.336;9.416;2023-02-11T11:28:15;19.95;;;15.63;;
27495;SDS011;14929;51.336;9.416;2023-02-11T11:30:48;17.33;;;15.13;;
27495;SDS011;14929;51.336;9.416;2023-02-11T11:33:19;17.42;;;13.48;;
27495;SDS011;14929;51.336;9.416;2023-02-11T11:35:56;15.63;;;13.50;;
27495;SDS011;14929;51.336;9.416;2023-02-11T11:38:27;15.95;;;14.02;;
27495;SDS011;14929;51.336;9.416;2023-02-11T11:43:53;12.00;;;9.45;;
27495;SDS011;14929;51.336;9.416;2023-02-11T11:46:23;11.30;;;9.27;;
27495;SDS011;14929;51.336;9.416;2023-02-11T11:48:57;11.70;;;9.20;;
27495;SDS011;14929;51.336;9.416;2023-02-11T11:51:33;9.27;;;7.93;;
27495;SDS011;14929;51.336;9.416;2023-02-11T11:54:02;10.25;;;8.27;;
27495;SDS011;14929;51.336;9.416;2023-02-11T11:56:32;10.95;;;8.43;;
27495;SDS011;14929;51.336;9.416;2023-02-11T11:59:02;9.13;;;7.13;;
27495;SDS011;14929;51.336;9.416;2023-02-11T12:01:39;8.27;;;7.10;;
27495;SDS011;14929;51.336;9.416;2023-02-11T12:04:20;7.70;;;6.45;;
27495;SDS011;14929;51.336;9.416;2023-02-11T12:07:10;7.55;;;6.80;;
27495;SDS011;14929;51.336;9.416;2023-02-11T12:09:49;7.85;;;7.05;;
27495;SDS011;14929;51.336;9.416;2023-02-11T12:12:42;7.22;;;6.47;;
27495;SDS011;14929;51.336;9.416;2023-02-11T12:15:31;7.53;;;6.78;;
27495;SDS011;14929;51.336;9.416;2023-02-11T12:18:07;8.57;;;7.07;;
27495;SDS011;14929;51.336;9.416;2023-02-11T12:21:01;5.40;;;4.75;;
27495;SDS011;14929;51.336;9.416;2023-02-11T12:23:53;7.15;;;6.25;;
27495;SDS011;14929;51.336;9.416;2023-02-11T12:26:33;8.95;;;6.97;;
27495;SDS011;14929;51.336;9.416;2023-02-11T12:29:07;5.50;;;4.90;;
27495;SDS011;14929;51.336;9.416;2023-02-11T12:31:48;5.85;;;4.63;;
27495;SDS011;14929;51.336;9.416;2023-02-11T12:34:37;6.32;;;5.55;;
27495;SDS011;14929;51.336;9.416;2023-02-11T12:37:31;8.50;;;7.05;;
27495;SDS011;14929;51.336;9.416;2023-02-11T12:40:14;7.18;;;6.28;;
27495;SDS011;14929;51.336;9.416;2023-02-11T12:42:50;8.00;;;6.68;;
27495;SDS011;14929;51.336;9.416;2023-02-11T12:45:52;8.70;;;7.80;;
27495;SDS011;14929;51.336;9.416;2023-02-11T12:48:51;9.98;;;7.38;;
27495;SDS011;14929;51.336;9.416;2023-02-11T12:51:48;7.85;;;6.43;;
27495;SDS011;14929;51.336;9.416;2023-02-11T12:54:27;8.00;;;6.22;;
27495;SDS011;14929;51.336;9.416;2023-02-11T12:56:58;8.30;;;6.93;;
27495;SDS011;14929;51.336;9.416;2023-02-11T12:59:32;6.85;;;6.15;;
27495;SDS011;14929;51.336;9.416;2023-02-11T13:02:10;9.60;;;6.82;;
27495;SDS011;14929;51.336;9.416;2023-02-11T13:04:46;7.07;;;5.82;;
27495;SDS011;14929;51.336;9.416;2023-02-11T13:07:18;7.90;;;7.10;;
27495;SDS011;14929;51.336;9.416;2023-02-11T13:09:53;9.85;;;8.43;;
27495;SDS011;14929;51.336;9.416;2023-02-11T13:12:26;7.47;;;6.63;;
27495;SDS011;14929;51.336;9.416;2023-02-11T13:15:13;9.75;;;8.15;;
27495;SDS011;14929;51.336;9.416;2023-02-11T13:17:43;12.65;;;9.00;;
27495;SDS011;14929;51.336;9.416;2023-02-11T13:20:25;15.38;;;12.13;;
27495;SDS011;14929;51.336;9.416;2023-02-11T13:23:02;27.15;;;24.27;;
27495;SDS011;14929;51.336;9.416;2023-02-11T13:25:41;13.85;;;11.63;;
27495;SDS011;14929;51.336;9.416;2023-02-11T13:28:31;9.60;;;8.68;;
27495;SDS011;14929;51.336;9.416;2023-02-11T13:31:06;13.77;;;12.18;;
27495;SDS011;14929;51.336;9.416;2023-02-11T13:33:36;12.52;;;10.13;;
27495;SDS011;14929;51.336;9.416;2023-02-11T13:36:11;15.30;;;12.07;;
27495;SDS011;14929;51.336;9.416;2023-02-11T13:38:53;11.35;;;8.48;;
27495;SDS011;14929;51.336;9.416;2023-02-11T13:41:29;11.45;;;9.10;;
27495;SDS011;14929;51.336;9.416;2023-02-11T13:44:00;10.40;;;8.25;;
27495;SDS011;14929;51.336;9.416;2023-02-11T13:46:50;8.10;;;7.07;;
27495;SDS011;14929;51.336;9.416;2023-02-11T13:49:26;9.43;;;8.27;;
27495;SDS011;14929;51.336;9.416;2023-02-11T13:51:59;10.23;;;7.53;;
27495;SDS011;14929;51.336;9.416;2023-02-11T13:54:30;9.95;;;7.63;;
27495;SDS011;14929;51.336;9.416;2023-02-11T14:00:05;10.73;;;8.13;;
27495;SDS011;14929;51.336;9.416;2023-02-11T14:03:23;8.05;;;6.63;;
27495;SDS011;14929;51.336;9.416;2023-02-11T14:06:16;10.30;;;8.82;;
27495;SDS011;14929;51.336;9.416;2023-02-11T14:12:15;7.25;;;6.47;;
27495;SDS011;14929;51.336;9.416;2023-02-11T14:15:15;14.15;;;8.90;;
27495;SDS011;14929;51.336;9.416;2023-02-11T14:17:48;7.55;;;6.75;;
27495;SDS011;14929;51.336;9.416;2023-02-11T14:20:39;9.32;;;7.80;;
27495;SDS011;14929;51.336;9.416;2023-02-11T14:23:19;9.02;;;7.72;;
27495;SDS011;14929;51.336;9.416;2023-02-11T14:26:03;10.43;;;8.55;;
27495;SDS011;14929;51.336;9.416;2023-02-11T14:28:52;10.65;;;9.45;;
27495;SDS011;14929;51.336;9.416;2023-02-11T14:31:25;10.20;;;8.45;;
27495;SDS011;14929;51.336;9.416;2023-02-11T14:33:59;10.95;;;7.93;;
27495;SDS011;14929;51.336;9.416;2023-02-11T14:36:49;14.27;;;8.25;;
27495;SDS011;14929;51.336;9.416;2023-02-11T14:39:28;9.48;;;7.57;;
27495;SDS011;14929;51.336;9.416;2023-02-11T14:42:09;11.60;;;9.25;;
27495;SDS011;14929;51.336;9.416;2023-02-11T14:44:45;11.95;;;7.72;;
27495;SDS011;14929;51.336;9.416;2023-02-11T14:47:16;12.95;;;7.70;;
27495;SDS011;14929;51.336;9.416;2023-02-11T14:49:46;9.60;;;7.65;;
27495;SDS011;14929;51.336;9.416;2023-02-11T14:52:15;10.68;;;9.18;;
27495;SDS011;14929;51.336;9.416;2023-02-11T14:54:50;11.00;;;8.52;;
27495;SDS011;14929;51.336;9.416;2023-02-11T14:57:19;10.27;;;8.43;;
27495;SDS011;14929;51.336;9.416;2023-02-11T14:59:55;11.63;;;9.85;;
27495;SDS011;14929;51.336;9.416;2023-02-11T15:02:27;9.80;;;7.80;;
27495;SDS011;14929;51.336;9.416;2023-02-11T15:05:14;11.15;;;7.20;;
27495;SDS011;14929;51.336;9.416;2023-02-11T15:07:45;9.65;;;7.00;;
27495;SDS011;14929;51.336;9.416;2023-02-11T15:10:15;9.55;;;8.10;;
27495;SDS011;14929;51.336;9.416;2023-02-11T15:12:48;12.63;;;8.93;;
27495;SDS011;14929;51.336;9.416;2023-02-11T15:15:17;11.48;;;8.50;;